sensor_id;sensor_type;location;lat;lon;timestamp;pressure;altitude;pressure_sealevel;temperature;humidity
62544;BME280;48597;49.030;1.822;2023-03-14T00:01:08;98523.50;;;20.94;39.92
62544;BME280;48597;49.030;1.822;2023-03-14T00:03:34;98518.28;;;20.93;40.06
62544;BME280;48597;49.030;1.822;2023-03-14T00:06:02;98513.34;;;20.93;39.81
62544;BME280;48597;49.030;1.822;2023-03-14T00:08:28;98516.97;;;20.94;39.95
62544;BME280;48597;49.030;1.822;2023-03-14T00:10:53;98509.16;;;20.94;39.87
62544;BME280;48597;49.030;1.822;2023-03-14T00:13:18;98506.31;;;20.94;39.96
62544;BME280;48597;49.030;1.822;2023-03-14T00:15:44;98507.59;;;20.93;39.76
62544;BME280;48597;49.030;1.822;2023-03-14T00:18:09;98495.38;;;20.93;39.81
62544;BME280;48597;49.030;1.822;2023-03-14T00:20:34;98499.00;;;20.93;39.80
62544;BME280;48597;49.030;1.822;2023-03-14T00:23:00;98491.22;;;20.94;39.84
62544;BME280;48597;49.030;1.822;2023-03-14T00:25:25;98489.63;;;20.93;39.86
62544;BME280;48597;49.030;1.822;2023-03-14T00:27:51;98490.41;;;20.93;40.00
62544;BME280;48597;49.030;1.822;2023-03-14T00:30:17;98487.28;;;20.91;39.89
62544;BME280;48597;49.030;1.822;2023-03-14T00:32:42;98478.69;;;20.91;39.79
62544;BME280;48597;49.030;1.822;2023-03-14T00:35:08;98483.13;;;20.92;39.83
62544;BME280;48597;49.030;1.822;2023-03-14T00:37:34;98484.41;;;20.91;40.03
62544;BME280;48597;49.030;1.822;2023-03-14T00:39:59;98486.00;;;20.92;40.04
62544;BME280;48597;49.030;1.822;2023-03-14T00:42:24;98482.63;;;20.94;39.94
62544;BME280;48597;49.030;1.822;2023-03-14T00:44:50;98481.03;;;20.93;39.75
62544;BME280;48597;49.030;1.822;2023-03-14T00:47:15;98473.50;;;20.95;39.59
62544;BME280;48597;49.030;1.822;2023-03-14T00:49:40;98474.28;;;20.96;39.83
62544;BME280;48597;49.030;1.822;2023-03-14T00:52:08;98486.53;;;20.96;39.78
62544;BME280;48597;49.030;1.822;2023-03-14T00:54:34;98489.66;;;20.98;39.66
62544;BME280;48597;49.030;1.822;2023-03-14T00:56:59;98483.16;;;20.98;39.56
62544;BME280;48597;49.030;1.822;2023-03-14T00:59:25;98483.16;;;20.98;39.77
62544;BME280;48597;49.030;1.822;2023-03-14T01:01:50;98491.75;;;20.98;39.83
62544;BME280;48597;49.030;1.822;2023-03-14T01:04:15;98483.94;;;20.98;39.89
62544;BME280;48597;49.030;1.822;2023-03-14T01:06:41;98488.38;;;20.99;39.90
62544;BME280;48597;49.030;1.822;2023-03-14T01:09:06;98492.28;;;21.02;39.82
62544;BME280;48597;49.030;1.822;2023-03-14T01:11:33;98486.56;;;21.02;39.99
62544;BME280;48597;49.030;1.822;2023-03-14T01:13:59;98490.44;;;21.04;39.89
62544;BME280;48597;49.030;1.822;2023-03-14T01:16:27;98503.47;;;21.05;39.82
62544;BME280;48597;49.030;1.822;2023-03-14T01:18:53;98492.81;;;21.06;39.64
62544;BME280;48597;49.030;1.822;2023-03-14T01:21:22;98480.06;;;21.07;39.98
62544;BME280;48597;49.030;1.822;2023-03-14T01:23:49;98498.03;;;21.08;39.88
62544;BME280;48597;49.030;1.822;2023-03-14T01:26:17;98491.00;;;21.09;39.64
62544;BME280;48597;49.030;1.822;2023-03-14T01:28:46;98480.31;;;21.09;39.80
62544;BME280;48597;49.030;1.822;2023-03-14T01:31:12;98486.06;;;21.09;39.69
62544;BME280;48597;49.030;1.822;2023-03-14T01:33:38;98482.41;;;21.09;39.71
62544;BME280;48597;49.030;1.822;2023-03-14T01:36:05;98486.31;;;21.11;39.86
62544;BME280;48597;49.030;1.822;2023-03-14T01:38:32;98497.00;;;21.11;39.67
62544;BME280;48597;49.030;1.822;2023-03-14T01:40:58;98487.63;;;21.10;39.63
62544;BME280;48597;49.030;1.822;2023-03-14T01:43:24;98483.44;;;21.11;39.74
62544;BME280;48597;49.030;1.822;2023-03-14T01:48:36;98487.88;;;21.12;39.74
62544;BME280;48597;49.030;1.822;2023-03-14T01:51:06;98487.09;;;21.12;39.69
62544;BME280;48597;49.030;1.822;2023-03-14T01:53:34;98489.97;;;21.12;39.79
62544;BME280;48597;49.030;1.822;2023-03-14T01:56:00;98486.31;;;21.11;39.86
62544;BME280;48597;49.030;1.822;2023-03-14T01:58:27;98492.84;;;21.12;39.97
62544;BME280;48597;49.030;1.822;2023-03-14T02:00:57;98484.25;;;21.12;39.92
62544;BME280;48597;49.030;1.822;2023-03-14T02:03:24;98484.25;;;21.12;39.78
62544;BME280;48597;49.030;1.822;2023-03-14T02:05:52;98478.00;;;21.13;39.97
62544;BME280;48597;49.030;1.822;2023-03-14T02:08:20;98482.94;;;21.13;39.94
62544;BME280;48597;49.030;1.822;2023-03-14T02:10:48;98491.03;;;21.14;39.92
62544;BME280;48597;49.030;1.822;2023-03-14T02:13:17;98483.44;;;21.17;39.82
62544;BME280;48597;49.030;1.822;2023-03-14T02:15:43;98480.59;;;21.17;39.84
62544;BME280;48597;49.030;1.822;2023-03-14T02:18:09;98479.28;;;21.18;39.93
62544;BME280;48597;49.030;1.822;2023-03-14T02:23:05;98488.97;;;21.20;39.72
62544;BME280;48597;49.030;1.822;2023-03-14T02:25:55;98482.72;;;21.22;39.71
62544;BME280;48597;49.030;1.822;2023-03-14T02:28:23;98477.00;;;21.22;39.95
62544;BME280;48597;49.030;1.822;2023-03-14T02:30:49;98474.13;;;21.22;39.67
62544;BME280;48597;49.030;1.822;2023-03-14T02:33:17;98472.31;;;21.24;39.93
62544;BME280;48597;49.030;1.822;2023-03-14T02:35:47;98468.94;;;21.26;39.69
62544;BME280;48597;49.030;1.822;2023-03-14T02:38:37;98464.78;;;21.27;39.78
62544;BME280;48597;49.030;1.822;2023-03-14T02:41:05;98470.78;;;21.29;39.57
62544;BME280;48597;49.030;1.822;2023-03-14T02:43:30;98473.88;;;21.31;39.68
62544;BME280;48597;49.030;1.822;2023-03-14T02:45:56;98474.66;;;21.31;39.84
62544;BME280;48597;49.030;1.822;2023-03-14T02:48:26;98472.06;;;21.33;39.60
62544;BME280;48597;49.030;1.822;2023-03-14T02:50:57;98477.28;;;21.35;39.46
62544;BME280;48597;49.030;1.822;2023-03-14T02:53:28;98469.72;;;21.32;39.83
62544;BME280;48597;49.030;1.822;2023-03-14T02:55:54;98473.63;;;21.34;39.59
62544;BME280;48597;49.030;1.822;2023-03-14T02:58:20;98477.53;;;21.37;39.53
62544;BME280;48597;49.030;1.822;2023-03-14T03:00:46;98477.03;;;21.38;39.73
62544;BME280;48597;49.030;1.822;2023-03-14T03:03:12;98488.75;;;21.41;39.75
62544;BME280;48597;49.030;1.822;2023-03-14T03:05:38;98478.06;;;21.41;39.46
62544;BME280;48597;49.030;1.822;2023-03-14T03:08:04;98482.50;;;21.42;39.52
62544;BME280;48597;49.030;1.822;2023-03-14T03:10:30;98483.25;;;21.43;39.48
62544;BME280;48597;49.030;1.822;2023-03-14T03:12:55;98486.13;;;21.43;39.30
62544;BME280;48597;49.030;1.822;2023-03-14T03:15:21;98494.72;;;21.43;39.48
62544;BME280;48597;49.030;1.822;2023-03-14T03:17:47;98491.88;;;21.43;39.53
62544;BME280;48597;49.030;1.822;2023-03-14T03:20:12;98494.72;;;21.43;39.53
62544;BME280;48597;49.030;1.822;2023-03-14T03:22:38;98488.25;;;21.42;39.45
62544;BME280;48597;49.030;1.822;2023-03-14T03:25:05;98493.97;;;21.42;39.36
62544;BME280;48597;49.030;1.822;2023-03-14T03:27:32;98489.00;;;21.43;39.47
62544;BME280;48597;49.030;1.822;2023-03-14T03:29:58;98481.72;;;21.42;39.34
62544;BME280;48597;49.030;1.822;2023-03-14T03:32:24;98483.81;;;21.41;39.55
62544;BME280;48597;49.030;1.822;2023-03-14T03:34:49;98496.56;;;21.40;39.40
62544;BME280;48597;49.030;1.822;2023-03-14T03:37:15;98493.72;;;21.40;39.66
62544;BME280;48597;49.030;1.822;2023-03-14T03:39:40;98487.97;;;21.40;39.39
62544;BME280;48597;49.030;1.822;2023-03-14T03:42:06;98499.16;;;21.38;39.46
62544;BME280;48597;49.030;1.822;2023-03-14T03:44:31;98500.75;;;21.39;39.62
62544;BME280;48597;49.030;1.822;2023-03-14T03:46:56;98504.13;;;21.37;39.46
62544;BME280;48597;49.030;1.822;2023-03-14T03:49:22;98503.34;;;21.37;39.61
62544;BME280;48597;49.030;1.822;2023-03-14T03:51:47;98509.06;;;21.37;39.58
62544;BME280;48597;49.030;1.822;2023-03-14T03:54:13;98515.31;;;21.35;39.65
62544;BME280;48597;49.030;1.822;2023-03-14T03:56:38;98521.81;;;21.36;39.45
62544;BME280;48597;49.030;1.822;2023-03-14T03:59:04;98518.19;;;21.35;39.76
62544;BME280;48597;49.030;1.822;2023-03-14T04:01:29;98518.97;;;21.36;39.42
62544;BME280;48597;49.030;1.822;2023-03-14T04:03:55;98525.19;;;21.34;39.51
62544;BME280;48597;49.030;1.822;2023-03-14T04:06:20;98527.28;;;21.34;39.72
62544;BME280;48597;49.030;1.822;2023-03-14T04:08:46;98529.38;;;21.33;39.62
62544;BME280;48597;49.030;1.822;2023-03-14T04:11:11;98553.06;;;21.34;39.45
62544;BME280;48597;49.030;1.822;2023-03-14T04:13:37;98548.66;;;21.33;39.72
62544;BME280;48597;49.030;1.822;2023-03-14T04:16:02;98599.44;;;21.32;39.81
62544;BME280;48597;49.030;1.822;2023-03-14T04:18:28;98589.28;;;21.31;39.79
62544;BME280;48597;49.030;1.822;2023-03-14T04:20:56;98633.03;;;21.32;39.55
62544;BME280;48597;49.030;1.822;2023-03-14T04:23:23;98633.03;;;21.32;39.59
62544;BME280;48597;49.030;1.822;2023-03-14T04:25:53;98653.59;;;21.30;39.78
62544;BME280;48597;49.030;1.822;2023-03-14T04:28:19;98665.06;;;21.30;39.72
62544;BME280;48597;49.030;1.822;2023-03-14T04:30:45;98670.03;;;21.30;39.75
62544;BME280;48597;49.030;1.822;2023-03-14T04:33:10;98675.75;;;21.30;39.71
62544;BME280;48597;49.030;1.822;2023-03-14T04:35:37;98693.47;;;21.28;39.81
62544;BME280;48597;49.030;1.822;2023-03-14T04:38:03;98694.25;;;21.29;39.79
62544;BME280;48597;49.030;1.822;2023-03-14T04:40:28;98713.53;;;21.28;39.89
62544;BME280;48597;49.030;1.822;2023-03-14T04:42:53;98710.41;;;21.26;39.74
62544;BME280;48597;49.030;1.822;2023-03-14T04:45:19;98716.91;;;21.27;39.91
62544;BME280;48597;49.030;1.822;2023-03-14T04:47:44;98734.63;;;21.25;39.90
62544;BME280;48597;49.030;1.822;2023-03-14T04:50:10;98747.38;;;21.24;39.70
62544;BME280;48597;49.030;1.822;2023-03-14T04:52:36;98751.53;;;21.23;39.78
62544;BME280;48597;49.030;1.822;2023-03-14T04:55:01;98752.31;;;21.24;39.82
62544;BME280;48597;49.030;1.822;2023-03-14T04:57:27;98755.69;;;21.22;39.83
62544;BME280;48597;49.030;1.822;2023-03-14T04:59:52;98778.09;;;21.24;39.91
62544;BME280;48597;49.030;1.822;2023-03-14T05:02:18;98778.59;;;21.22;39.99
62544;BME280;48597;49.030;1.822;2023-03-14T05:04:43;98782.75;;;21.21;39.77
62544;BME280;48597;49.030;1.822;2023-03-14T05:07:09;98799.97;;;21.21;39.74
62544;BME280;48597;49.030;1.822;2023-03-14T05:09:34;98812.72;;;21.20;40.09
62544;BME280;48597;49.030;1.822;2023-03-14T05:12:00;98826.25;;;21.20;39.83
62544;BME280;48597;49.030;1.822;2023-03-14T05:14:25;98832.47;;;21.18;39.70
62544;BME280;48597;49.030;1.822;2023-03-14T05:16:50;98853.31;;;21.19;39.81
62544;BME280;48597;49.030;1.822;2023-03-14T05:19:16;98852.50;;;21.18;39.82
62544;BME280;48597;49.030;1.822;2023-03-14T05:21:41;98859.53;;;21.17;40.00
62544;BME280;48597;49.030;1.822;2023-03-14T05:24:07;98871.00;;;21.17;39.79
62544;BME280;48597;49.030;1.822;2023-03-14T05:26:32;98882.19;;;21.15;39.95
62544;BME280;48597;49.030;1.822;2023-03-14T05:28:57;98896.00;;;21.17;39.89
62544;BME280;48597;49.030;1.822;2023-03-14T05:31:23;98907.44;;;21.17;39.90
62544;BME280;48597;49.030;1.822;2023-03-14T05:33:48;98921.00;;;21.16;39.65
62544;BME280;48597;49.030;1.822;2023-03-14T05:36:14;98943.66;;;21.14;39.89
62544;BME280;48597;49.030;1.822;2023-03-14T05:38:39;98950.69;;;21.13;39.96
62544;BME280;48597;49.030;1.822;2023-03-14T05:41:05;98960.06;;;21.14;39.63
62544;BME280;48597;49.030;1.822;2023-03-14T05:43:30;98960.06;;;21.14;39.91
62544;BME280;48597;49.030;1.822;2023-03-14T05:45:56;98972.81;;;21.13;39.90
62544;BME280;48597;49.030;1.822;2023-03-14T05:48:21;98987.13;;;21.13;39.69
62544;BME280;48597;49.030;1.822;2023-03-14T05:50:47;99001.47;;;21.13;39.82
62544;BME280;48597;49.030;1.822;2023-03-14T05:53:13;99021.50;;;21.13;39.80
62544;BME280;48597;49.030;1.822;2023-03-14T05:55:39;99021.22;;;21.11;39.73
62544;BME280;48597;49.030;1.822;2023-03-14T05:58:05;99032.69;;;21.11;39.61
62544;BME280;48597;49.030;1.822;2023-03-14T06:00:30;99044.94;;;21.11;39.74
62544;BME280;48597;49.030;1.822;2023-03-14T06:02:56;99051.16;;;21.10;39.85
62544;BME280;48597;49.030;1.822;2023-03-14T06:05:21;99056.88;;;21.10;39.66
62544;BME280;48597;49.030;1.822;2023-03-14T06:07:46;99059.75;;;21.10;39.92
62544;BME280;48597;49.030;1.822;2023-03-14T06:10:12;99072.50;;;21.09;39.68
62544;BME280;48597;49.030;1.822;2023-03-14T06:12:37;99097.00;;;21.10;39.63
62544;BME280;48597;49.030;1.822;2023-03-14T06:15:03;99092.56;;;21.09;39.66
62544;BME280;48597;49.030;1.822;2023-03-14T06:17:28;99088.13;;;21.08;39.81
62544;BME280;48597;49.030;1.822;2023-03-14T06:19:54;99111.03;;;21.08;39.58
62544;BME280;48597;49.030;1.822;2023-03-14T06:22:19;99126.63;;;21.07;39.57
62544;BME280;48597;49.030;1.822;2023-03-14T06:24:45;99130.00;;;21.05;39.82
62544;BME280;48597;49.030;1.822;2023-03-14T06:27:10;99149.56;;;21.07;39.72
62544;BME280;48597;49.030;1.822;2023-03-14T06:29:36;99154.50;;;21.06;39.57
62544;BME280;48597;49.030;1.822;2023-03-14T06:32:01;99156.56;;;21.05;39.65
62544;BME280;48597;49.030;1.822;2023-03-14T06:34:27;99170.09;;;21.05;39.49
62544;BME280;48597;49.030;1.822;2023-03-14T06:36:52;99169.31;;;21.04;39.63
62544;BME280;48597;49.030;1.822;2023-03-14T06:39:17;99178.44;;;21.03;39.67
62544;BME280;48597;49.030;1.822;2023-03-14T06:41:43;99202.13;;;21.03;39.41
62544;BME280;48597;49.030;1.822;2023-03-14T06:44:08;99197.69;;;21.02;39.90
62544;BME280;48597;49.030;1.822;2023-03-14T06:46:34;99201.84;;;21.01;39.67
62544;BME280;48597;49.030;1.822;2023-03-14T06:48:59;99203.13;;;21.00;39.91
62544;BME280;48597;49.030;1.822;2023-03-14T06:51:24;99226.84;;;21.01;39.73
62544;BME280;48597;49.030;1.822;2023-03-14T06:53:50;99227.63;;;21.01;39.74
62544;BME280;48597;49.030;1.822;2023-03-14T06:56:15;99231.78;;;21.00;39.80
62544;BME280;48597;49.030;1.822;2023-03-14T06:58:41;99243.25;;;21.00;39.69
62544;BME280;48597;49.030;1.822;2023-03-14T07:01:20;99244.53;;;20.99;39.59
62544;BME280;48597;49.030;1.822;2023-03-14T07:03:46;99254.69;;;21.00;39.43
62544;BME280;48597;49.030;1.822;2023-03-14T07:06:11;99263.00;;;20.98;39.33
62544;BME280;48597;49.030;1.822;2023-03-14T07:08:37;99272.38;;;20.99;39.29
62544;BME280;48597;49.030;1.822;2023-03-14T07:11:04;99285.91;;;20.98;39.49
62544;BME280;48597;49.030;1.822;2023-03-14T07:13:29;99287.19;;;20.97;39.30
62544;BME280;48597;49.030;1.822;2023-03-14T07:15:55;99284.03;;;20.95;39.46
62544;BME280;48597;49.030;1.822;2023-03-14T07:18:20;99295.00;;;20.97;39.42
62544;BME280;48597;49.030;1.822;2023-03-14T07:20:46;99303.09;;;20.98;39.23
62544;BME280;48597;49.030;1.822;2023-03-14T07:23:11;99297.38;;;20.98;39.35
62544;BME280;48597;49.030;1.822;2023-03-14T07:25:37;99296.38;;;21.01;39.60
62544;BME280;48597;49.030;1.822;2023-03-14T07:28:02;99313.56;;;21.01;39.63
62544;BME280;48597;49.030;1.822;2023-03-14T07:30:27;99313.56;;;21.01;39.39
62544;BME280;48597;49.030;1.822;2023-03-14T07:32:53;99322.94;;;21.02;39.41
62544;BME280;48597;49.030;1.822;2023-03-14T07:35:18;99322.44;;;21.03;39.46
62544;BME280;48597;49.030;1.822;2023-03-14T07:37:44;99341.19;;;21.04;39.48
62544;BME280;48597;49.030;1.822;2023-03-14T07:40:10;99355.03;;;21.06;39.40
62544;BME280;48597;49.030;1.822;2023-03-14T07:42:37;99356.63;;;21.07;39.46
62544;BME280;48597;49.030;1.822;2023-03-14T07:45:03;99363.44;;;21.10;39.49
62544;BME280;48597;49.030;1.822;2023-03-14T07:47:28;99379.34;;;21.11;39.33
62544;BME280;48597;49.030;1.822;2023-03-14T07:49:54;99384.09;;;21.14;39.03
62544;BME280;48597;49.030;1.822;2023-03-14T07:52:19;99389.03;;;21.13;39.11
62544;BME280;48597;49.030;1.822;2023-03-14T07:54:44;99389.31;;;21.15;39.07
62544;BME280;48597;49.030;1.822;2023-03-14T07:57:10;99396.63;;;21.16;39.31
62544;BME280;48597;49.030;1.822;2023-03-14T07:59:35;99393.25;;;21.18;39.08
62544;BME280;48597;49.030;1.822;2023-03-14T08:02:01;99400.41;;;21.22;38.93
62544;BME280;48597;49.030;1.822;2023-03-14T08:04:26;99412.53;;;21.32;38.72
62544;BME280;48597;49.030;1.822;2023-03-14T08:06:52;99404.25;;;21.34;38.61
62544;BME280;48597;49.030;1.822;2023-03-14T08:09:19;99405.69;;;21.44;38.49
62544;BME280;48597;49.030;1.822;2023-03-14T08:11:44;99420.44;;;21.37;38.87
62544;BME280;48597;49.030;1.822;2023-03-14T08:14:10;99414.13;;;21.33;38.49
62544;BME280;48597;49.030;1.822;2023-03-14T08:16:36;99412.22;;;21.45;38.37
62544;BME280;48597;49.030;1.822;2023-03-14T08:19:01;99413.97;;;21.57;38.10
62544;BME280;48597;49.030;1.822;2023-03-14T08:21:27;99415.66;;;21.63;38.17
62544;BME280;48597;49.030;1.822;2023-03-14T08:23:52;99421.97;;;21.67;38.10
62544;BME280;48597;49.030;1.822;2023-03-14T08:26:18;99423.34;;;21.72;37.82
62544;BME280;48597;49.030;1.822;2023-03-14T08:28:43;99434.31;;;21.73;37.88
62544;BME280;48597;49.030;1.822;2023-03-14T08:31:09;99432.84;;;21.63;37.89
62544;BME280;48597;49.030;1.822;2023-03-14T08:33:34;99445.25;;;21.55;38.06
62544;BME280;48597;49.030;1.822;2023-03-14T08:36:00;99452.75;;;21.52;38.19
62544;BME280;48597;49.030;1.822;2023-03-14T08:38:26;99449.28;;;21.48;38.21
62544;BME280;48597;49.030;1.822;2023-03-14T08:40:58;99459.97;;;21.48;38.37
62544;BME280;48597;49.030;1.822;2023-03-14T08:43:25;99478.94;;;21.45;38.32
62544;BME280;48597;49.030;1.822;2023-03-14T08:45:50;99484.38;;;21.43;38.22
62544;BME280;48597;49.030;1.822;2023-03-14T08:48:16;99497.91;;;21.43;38.00
62544;BME280;48597;49.030;1.822;2023-03-14T08:50:41;99500.03;;;21.42;38.19
62544;BME280;48597;49.030;1.822;2023-03-14T08:53:07;99497.16;;;21.42;37.90
62544;BME280;48597;49.030;1.822;2023-03-14T08:55:32;99505.75;;;21.42;37.99
62544;BME280;48597;49.030;1.822;2023-03-14T08:57:57;99516.94;;;21.40;38.06
62544;BME280;48597;49.030;1.822;2023-03-14T09:00:23;99524.72;;;21.39;37.93
62544;BME280;48597;49.030;1.822;2023-03-14T09:02:49;99528.88;;;21.38;38.14
62544;BME280;48597;49.030;1.822;2023-03-14T09:05:14;99542.41;;;21.38;38.07
62544;BME280;48597;49.030;1.822;2023-03-14T09:07:40;99551.81;;;21.38;38.11
62544;BME280;48597;49.030;1.822;2023-03-14T09:10:07;99563.78;;;21.37;37.84
62544;BME280;48597;49.030;1.822;2023-03-14T09:12:33;99585.91;;;21.36;37.95
62544;BME280;48597;49.030;1.822;2023-03-14T09:14:58;99581.47;;;21.35;37.99
62544;BME280;48597;49.030;1.822;2023-03-14T09:17:24;99584.31;;;21.35;38.06
62544;BME280;48597;49.030;1.822;2023-03-14T09:19:49;99609.81;;;21.33;38.20
62544;BME280;48597;49.030;1.822;2023-03-14T09:22:15;99605.84;;;21.31;38.07
62544;BME280;48597;49.030;1.822;2023-03-14T09:24:41;99592.31;;;21.31;38.13
62544;BME280;48597;49.030;1.822;2023-03-14T09:27:06;99610.31;;;21.32;37.97
62544;BME280;48597;49.030;1.822;2023-03-14T09:29:32;99618.59;;;21.30;38.14
62544;BME280;48597;49.030;1.822;2023-03-14T09:31:58;99621.47;;;21.30;37.97
62544;BME280;48597;49.030;1.822;2023-03-14T09:34:24;99610.00;;;21.30;37.94
62544;BME280;48597;49.030;1.822;2023-03-14T09:36:50;99618.59;;;21.30;38.29
62544;BME280;48597;49.030;1.822;2023-03-14T09:39:15;99631.38;;;21.29;38.14
62544;BME280;48597;49.030;1.822;2023-03-14T09:41:47;99634.25;;;21.29;37.99
62544;BME280;48597;49.030;1.822;2023-03-14T09:44:16;99637.09;;;21.29;38.14
62544;BME280;48597;49.030;1.822;2023-03-14T09:46:47;99645.69;;;21.29;37.93
62544;BME280;48597;49.030;1.822;2023-03-14T09:49:21;99656.38;;;21.28;38.26
62544;BME280;48597;49.030;1.822;2023-03-14T09:51:51;99642.53;;;21.27;38.09
62544;BME280;48597;49.030;1.822;2023-03-14T09:54:34;99666.25;;;21.27;38.38
62544;BME280;48597;49.030;1.822;2023-03-14T09:57:00;99667.53;;;21.26;38.05
62544;BME280;48597;49.030;1.822;2023-03-14T09:59:28;99657.66;;;21.27;38.24
62544;BME280;48597;49.030;1.822;2023-03-14T10:01:57;99664.19;;;21.28;38.18
62544;BME280;48597;49.030;1.822;2023-03-14T10:04:25;99668.31;;;21.27;38.20
62544;BME280;48597;49.030;1.822;2023-03-14T10:06:50;99663.38;;;21.27;38.36
62544;BME280;48597;49.030;1.822;2023-03-14T10:09:21;99674.06;;;21.27;38.02
62544;BME280;48597;49.030;1.822;2023-03-14T10:11:57;99672.47;;;21.26;38.10
62544;BME280;48597;49.030;1.822;2023-03-14T10:14:33;99680.59;;;21.27;38.33
62544;BME280;48597;49.030;1.822;2023-03-14T10:17:08;99692.03;;;21.27;38.43
62544;BME280;48597;49.030;1.822;2023-03-14T10:19:35;99698.25;;;21.26;38.19
62544;BME280;48597;49.030;1.822;2023-03-14T10:22:03;99701.13;;;21.26;38.17
62544;BME280;48597;49.030;1.822;2023-03-14T10:24:32;99704.78;;;21.26;38.23
62544;BME280;48597;49.030;1.822;2023-03-14T10:27:04;99711.81;;;21.25;38.08
62544;BME280;48597;49.030;1.822;2023-03-14T10:29:31;99726.13;;;21.25;38.02
62544;BME280;48597;49.030;1.822;2023-03-14T10:32:00;99736.81;;;21.25;37.95
62544;BME280;48597;49.030;1.822;2023-03-14T10:34:32;99728.69;;;21.23;37.96
62544;BME280;48597;49.030;1.822;2023-03-14T10:37:06;99735.22;;;21.24;37.98
62544;BME280;48597;49.030;1.822;2023-03-14T10:39:42;99738.06;;;21.24;37.80
62544;BME280;48597;49.030;1.822;2023-03-14T10:42:19;99739.34;;;21.23;37.98
62544;BME280;48597;49.030;1.822;2023-03-14T10:44:49;99748.44;;;21.21;37.87
62544;BME280;48597;49.030;1.822;2023-03-14T10:47:19;99746.84;;;21.20;37.99
62544;BME280;48597;49.030;1.822;2023-03-14T10:49:45;99759.09;;;21.21;37.78
62544;BME280;48597;49.030;1.822;2023-03-14T10:52:17;99759.59;;;21.19;37.81
62544;BME280;48597;49.030;1.822;2023-03-14T10:54:47;99759.09;;;21.21;38.06
62544;BME280;48597;49.030;1.822;2023-03-14T10:57:13;99761.66;;;21.19;37.74
62544;BME280;48597;49.030;1.822;2023-03-14T10:59:41;99778.03;;;21.18;38.08
62544;BME280;48597;49.030;1.822;2023-03-14T11:07:43;99781.38;;;21.17;38.06
62544;BME280;48597;49.030;1.822;2023-03-14T11:10:18;99781.88;;;21.15;38.00
62544;BME280;48597;49.030;1.822;2023-03-14T11:12:56;99789.19;;;21.16;38.10
62544;BME280;48597;49.030;1.822;2023-03-14T11:18:36;99790.97;;;21.14;37.93
62544;BME280;48597;49.030;1.822;2023-03-14T11:21:13;99790.97;;;21.14;38.00
62544;BME280;48597;49.030;1.822;2023-03-14T11:26:26;99803.22;;;21.14;37.87
62544;BME280;48597;49.030;1.822;2023-03-14T11:29:12;99808.16;;;21.14;37.74
62544;BME280;48597;49.030;1.822;2023-03-14T11:31:45;99804.97;;;21.12;37.84
62544;BME280;48597;49.030;1.822;2023-03-14T11:34:27;99807.06;;;21.11;37.64
62544;BME280;48597;49.030;1.822;2023-03-14T11:37:05;99813.59;;;21.12;37.89
62544;BME280;48597;49.030;1.822;2023-03-14T11:39:45;99824.25;;;21.11;37.69
62544;BME280;48597;49.030;1.822;2023-03-14T11:42:17;99817.72;;;21.11;37.75
62544;BME280;48597;49.030;1.822;2023-03-14T11:44:48;99840.66;;;21.11;37.97
62544;BME280;48597;49.030;1.822;2023-03-14T11:47:24;99844.00;;;21.09;37.70
62544;BME280;48597;49.030;1.822;2023-03-14T11:50:05;99849.72;;;21.09;37.80
62544;BME280;48597;49.030;1.822;2023-03-14T11:53:10;99840.81;;;21.07;37.62
62544;BME280;48597;49.030;1.822;2023-03-14T11:55:40;99854.34;;;21.07;37.75
62544;BME280;48597;49.030;1.822;2023-03-14T11:58:25;99849.41;;;21.07;37.72
62544;BME280;48597;49.030;1.822;2023-03-14T12:00:54;99850.69;;;21.06;37.79
62544;BME280;48597;49.030;1.822;2023-03-14T12:06:09;99860.06;;;21.07;37.84
62544;BME280;48597;49.030;1.822;2023-03-14T12:08:45;99842.09;;;21.06;37.80
62544;BME280;48597;49.030;1.822;2023-03-14T12:11:17;99842.09;;;21.06;37.62
62544;BME280;48597;49.030;1.822;2023-03-14T12:13:45;99838.91;;;21.04;37.75
62544;BME280;48597;49.030;1.822;2023-03-14T12:18:50;99840.97;;;21.03;37.74
62544;BME280;48597;49.030;1.822;2023-03-14T12:21:17;99848.31;;;21.04;37.83
62544;BME280;48597;49.030;1.822;2023-03-14T12:23:54;99850.38;;;21.04;37.50
62544;BME280;48597;49.030;1.822;2023-03-14T12:26:25;99846.22;;;21.05;37.50
62544;BME280;48597;49.030;1.822;2023-03-14T12:28:52;99855.03;;;21.01;37.62
62544;BME280;48597;49.030;1.822;2023-03-14T12:32:07;99866.47;;;21.01;37.60
62544;BME280;48597;49.030;1.822;2023-03-14T12:34:34;99876.66;;;21.02;37.83
62544;BME280;48597;49.030;1.822;2023-03-14T12:37:16;99889.41;;;21.01;37.74
62544;BME280;48597;49.030;1.822;2023-03-14T12:45:14;99883.66;;;21.01;37.61
62544;BME280;48597;49.030;1.822;2023-03-14T12:47:51;99886.53;;;21.01;37.62
62544;BME280;48597;49.030;1.822;2023-03-14T12:50:35;99898.78;;;21.02;37.62
62544;BME280;48597;49.030;1.822;2023-03-14T12:55:55;99936.19;;;20.98;37.88
62544;BME280;48597;49.030;1.822;2023-03-14T13:01:19;99944.78;;;20.98;37.78
62544;BME280;48597;49.030;1.822;2023-03-14T13:03:47;99954.19;;;20.99;37.64
62544;BME280;48597;49.030;1.822;2023-03-14T13:06:54;99957.03;;;20.99;37.79
62544;BME280;48597;49.030;1.822;2023-03-14T13:11:55;99975.03;;;20.99;37.65
62544;BME280;48597;49.030;1.822;2023-03-14T13:14:22;99979.97;;;20.99;37.72
62544;BME280;48597;49.030;1.822;2023-03-14T13:16:47;99951.31;;;20.99;37.76
62544;BME280;48597;49.030;1.822;2023-03-14T13:19:26;99959.44;;;21.00;37.61
62544;BME280;48597;49.030;1.822;2023-03-14T13:21:56;99966.44;;;20.99;37.77
62544;BME280;48597;49.030;1.822;2023-03-14T13:24:26;99961.50;;;21.00;37.79
62544;BME280;48597;49.030;1.822;2023-03-14T13:26:54;99967.72;;;20.98;37.84
62544;BME280;48597;49.030;1.822;2023-03-14T13:29:26;99956.25;;;20.98;37.96
62544;BME280;48597;49.030;1.822;2023-03-14T13:32:00;99956.25;;;20.98;37.75
62544;BME280;48597;49.030;1.822;2023-03-14T13:34:29;99957.03;;;20.99;37.72
62544;BME280;48597;49.030;1.822;2023-03-14T13:36:54;99950.84;;;21.00;37.79
62544;BME280;48597;49.030;1.822;2023-03-14T13:39:22;99953.72;;;21.00;37.68